createdAt,value
2023-01-29T00:01:55.424Z,99299.09
2023-01-29T00:05:09.946Z,99302.09
2023-01-29T00:08:21.032Z,99301.53
2023-01-29T00:11:25.622Z,99293.47
2023-01-29T00:14:28.696Z,99286.63
2023-01-29T00:17:31.539Z,99290.91
2023-01-29T00:20:34.451Z,99283.63
2023-01-29T00:23:38.880Z,99279.75
2023-01-29T00:26:42.591Z,99277.53
2023-01-29T00:30:02.507Z,99277.13
2023-01-29T00:33:05.380Z,99269.03
2023-01-29T00:36:09.263Z,99271.47
2023-01-29T00:39:13.498Z,99262.63
2023-01-29T00:42:33.947Z,99263.91
2023-01-29T00:45:38.701Z,99268.41
2023-01-29T00:48:41.539Z,99272.91
2023-01-29T00:51:44.335Z,99280.38
2023-01-29T00:54:48.495Z,99280.66
2023-01-29T00:57:51.365Z,99272.31
2023-01-29T01:00:54.290Z,99272.44
2023-01-29T01:03:56.098Z,99267.72
2023-01-29T01:06:58.909Z,99270.66
2023-01-29T01:10:19.967Z,99257.25
2023-01-29T01:13:22.804Z,99266.50
2023-01-29T01:16:27.166Z,99244.94
2023-01-29T01:19:30.022Z,99255.78
2023-01-29T01:22:33.051Z,99254.25
2023-01-29T01:25:38.241Z,99254.16
2023-01-29T01:28:41.043Z,99260.31
2023-01-29T01:31:43.948Z,99266.06
2023-01-29T01:34:46.823Z,99260.22
2023-01-29T01:37:49.666Z,99255.16
2023-01-29T01:40:53.871Z,99261.59
2023-01-29T01:43:58.428Z,99260.22
2023-01-29T01:47:01.995Z,99255.31
2023-01-29T01:50:08.903Z,99259.94
2023-01-29T01:53:13.059Z,99254.22
2023-01-29T01:56:19.517Z,99250.59
2023-01-29T01:59:23.246Z,99253.84
2023-01-29T02:02:44.286Z,99260.00
2023-01-29T02:06:05.868Z,99254.81
2023-01-29T02:09:29.358Z,99247.09
2023-01-29T02:12:33.808Z,99247.25
2023-01-29T02:15:36.678Z,99249.50
2023-01-29T02:18:39.680Z,99246.84
2023-01-29T02:22:03.596Z,99248.00
2023-01-29T02:25:20.818Z,99257.81
2023-01-29T02:28:29.006Z,99260.47
2023-01-29T02:31:36.533Z,99254.03
2023-01-29T02:34:59.525Z,99258.22
2023-01-29T02:38:06.319Z,99257.53
2023-01-29T02:41:14.365Z,99251.66
2023-01-29T02:44:23.237Z,99249.97
2023-01-29T02:47:32.209Z,99244.13
2023-01-29T02:50:38.554Z,99246.06
2023-01-29T02:53:43.306Z,99242.72
2023-01-29T02:56:49.671Z,99240.19
2023-01-29T02:59:57.069Z,99238.38
2023-01-29T03:03:02.675Z,99244.84
2023-01-29T03:06:20.786Z,99241.31
2023-01-29T03:09:27.781Z,99242.59
2023-01-29T03:12:36.885Z,99238.38
2023-01-29T03:15:46.981Z,99235.84
2023-01-29T03:18:53.194Z,99236.00
2023-01-29T03:22:00.251Z,99237.16
2023-01-29T03:25:21.523Z,99247.22
2023-01-29T03:28:42.546Z,99241.06
2023-01-29T03:32:06.338Z,99241.06
2023-01-29T03:35:11.056Z,99243.56
2023-01-29T03:38:13.942Z,99233.47
2023-01-29T03:41:24.943Z,99239.88
2023-01-29T03:44:31.716Z,99243.06
2023-01-29T03:47:41.464Z,99243.19
2023-01-29T03:50:50.240Z,99243.81
2023-01-29T03:53:56.379Z,99242.00
2023-01-29T03:57:00.894Z,99237.75
2023-01-29T04:00:08.959Z,99242.09
2023-01-29T04:03:17.885Z,99247.25
2023-01-29T04:06:23.150Z,99242.44
2023-01-29T04:09:29.872Z,99239.78
2023-01-29T04:12:37.379Z,99244.22
2023-01-29T04:15:43.774Z,99242.69
2023-01-29T04:18:49.026Z,99244.91
2023-01-29T04:21:54.196Z,99239.44
2023-01-29T04:25:02.507Z,99243.25
2023-01-29T04:28:08.735Z,99241.50
2023-01-29T04:31:13.691Z,99248.09
2023-01-29T04:34:24.551Z,99254.69
2023-01-29T04:37:33.024Z,99242.03
2023-01-29T04:40:40.693Z,99255.34
2023-01-29T04:43:47.155Z,99262.06
2023-01-29T04:46:53.723Z,99258.41
2023-01-29T04:50:02.069Z,99250.41
2023-01-29T04:53:09.204Z,99251.50
2023-01-29T04:56:18.390Z,99253.31
2023-01-29T04:59:26.103Z,99255.16
2023-01-29T05:02:29.383Z,99248.84
2023-01-29T05:05:33.905Z,99258.38
2023-01-29T05:08:38.596Z,99256.38
2023-01-29T05:11:41.742Z,99255.25
2023-01-29T05:14:46.118Z,99252.88
2023-01-29T05:17:48.997Z,99259.97
2023-01-29T05:20:54.168Z,99262.63
2023-01-29T05:24:17.767Z,99262.78
2023-01-29T05:27:39.946Z,99266.69
2023-01-29T05:30:43.796Z,99267.97
2023-01-29T05:33:46.623Z,99262.31
2023-01-29T05:36:50.840Z,99258.53
2023-01-29T05:39:53.722Z,99265.84
2023-01-29T05:42:56.519Z,99260.81
2023-01-29T05:46:00.129Z,99260.38
2023-01-29T05:49:03.080Z,99264.31
2023-01-29T05:52:07.399Z,99269.88
2023-01-29T05:55:10.901Z,99265.81
2023-01-29T05:58:13.753Z,99266.25
2023-01-29T06:01:18.301Z,99266.56
2023-01-29T06:04:21.160Z,99259.84
2023-01-29T06:07:25.429Z,99269.66
2023-01-29T06:10:28.256Z,99263.94
2023-01-29T06:13:31.143Z,99256.94
2023-01-29T06:16:34.033Z,99257.69
2023-01-29T06:19:36.901Z,99253.78
2023-01-29T06:22:41.152Z,99259.56
2023-01-29T06:25:44.040Z,99250.03
2023-01-29T06:28:49.508Z,99249.91
2023-01-29T06:31:52.458Z,99248.00
2023-01-29T06:34:55.355Z,99248.25
2023-01-29T06:37:59.517Z,99252.59
2023-01-29T06:41:09.187Z,99251.91
2023-01-29T06:44:11.970Z,99254.34
2023-01-29T06:47:14.796Z,99248.16
2023-01-29T06:50:18.193Z,99251.94
2023-01-29T06:53:22.674Z,99253.38
2023-01-29T06:56:25.618Z,99252.28
2023-01-29T06:59:28.466Z,99244.56
2023-01-29T07:02:31.409Z,99247.78
2023-01-29T07:05:34.233Z,99242.09
2023-01-29T07:08:39.267Z,99246.84
2023-01-29T07:11:42.186Z,99245.47
2023-01-29T07:14:44.995Z,99245.75
2023-01-29T07:17:56.779Z,99236.50
2023-01-29T07:20:59.722Z,99233.31
2023-01-29T07:24:03.997Z,99229.97
2023-01-29T07:27:06.901Z,99225.47
2023-01-29T07:30:10.376Z,99217.50
2023-01-29T07:33:13.210Z,99221.97
2023-01-29T07:36:16.111Z,99217.91
2023-01-29T07:39:20.360Z,99220.88
2023-01-29T07:42:23.575Z,99224.66
2023-01-29T07:45:26.402Z,99228.28
2023-01-29T07:48:29.260Z,99243.84
2023-01-29T07:51:32.024Z,99253.66
2023-01-29T07:54:36.288Z,99243.31
2023-01-29T07:57:39.125Z,99240.78
2023-01-29T08:00:41.986Z,99238.66
2023-01-29T08:03:44.886Z,99236.72
2023-01-29T08:06:47.822Z,99237.72
2023-01-29T08:09:51.960Z,99240.22
2023-01-29T08:12:55.579Z,99239.53
2023-01-29T08:16:00.612Z,99237.03
2023-01-29T08:19:03.607Z,99231.56
2023-01-29T08:22:06.769Z,99234.22
2023-01-29T08:25:11.411Z,99230.56
2023-01-29T08:28:14.226Z,99234.50
2023-01-29T08:31:17.411Z,99224.84
2023-01-29T08:34:20.276Z,99224.81
2023-01-29T08:37:23.074Z,99224.84
2023-01-29T08:40:27.412Z,99228.44
2023-01-29T08:43:30.294Z,99229.41
2023-01-29T08:46:33.262Z,99228.94
2023-01-29T08:49:36.061Z,99225.41
2023-01-29T08:52:38.858Z,99226.91
2023-01-29T08:55:43.260Z,99220.16
2023-01-29T08:58:46.040Z,99210.03
2023-01-29T09:01:48.862Z,99208.22
2023-01-29T09:04:51.759Z,99212.56
2023-01-29T09:07:54.689Z,99209.47
2023-01-29T09:11:01.215Z,99205.06
2023-01-29T09:14:04.079Z,99199.88
2023-01-29T09:17:06.842Z,99200.72
2023-01-29T09:20:10.516Z,99199.81
2023-01-29T09:23:13.373Z,99197.84
2023-01-29T09:26:17.765Z,99184.38
2023-01-29T09:29:20.563Z,99194.56
2023-01-29T09:35:47.222Z,99194.72
2023-01-29T09:38:50.044Z,99193.28
2023-01-29T09:41:57.684Z,99192.63
2023-01-29T09:45:12.202Z,99184.97
2023-01-29T09:48:15.221Z,99176.63
2023-01-29T09:51:24.745Z,99173.81
2023-01-29T09:54:30.634Z,99193.38
2023-01-29T09:57:41.251Z,99182.88
2023-01-29T10:00:49.478Z,99173.72
2023-01-29T10:04:10.332Z,99163.78
2023-01-29T10:07:19.880Z,99169.09
2023-01-29T10:10:30.870Z,99165.97
2023-01-29T10:13:41.912Z,99160.09
2023-01-29T10:16:54.804Z,99163.84
2023-01-29T10:20:04.390Z,99162.31
2023-01-29T10:23:16.003Z,99162.69
2023-01-29T10:26:21.052Z,99163.84
2023-01-29T10:29:26.729Z,99159.75
2023-01-29T10:32:30.791Z,99152.84
2023-01-29T10:35:36.030Z,99157.19
2023-01-29T10:38:44.078Z,99161.91
2023-01-29T10:41:56.076Z,99156.91
2023-01-29T10:45:10.580Z,99159.09
2023-01-29T10:48:34.965Z,99160.25
2023-01-29T10:51:54.612Z,99144.25
2023-01-29T10:55:05.388Z,99147.31
2023-01-29T10:58:11.939Z,99153.75
2023-01-29T11:01:16.355Z,99151.09
2023-01-29T11:04:19.512Z,99143.81
2023-01-29T11:07:23.542Z,99134.44
2023-01-29T11:10:26.681Z,99133.97
2023-01-29T11:13:32.620Z,99135.31
2023-01-29T11:16:43.144Z,99128.38
2023-01-29T11:23:07.645Z,99137.91
2023-01-29T11:26:13.177Z,99138.53
2023-01-29T11:29:36.800Z,99132.81
2023-01-29T11:32:42.178Z,99138.44
2023-01-29T11:35:46.446Z,99128.91
2023-01-29T11:39:06.100Z,99130.09
2023-01-29T11:42:19.995Z,99143.53
2023-01-29T11:45:27.463Z,99149.09
2023-01-29T11:48:36.454Z,99145.31
2023-01-29T11:51:40.416Z,99147.13
2023-01-29T11:54:46.427Z,99147.81
2023-01-29T11:57:51.219Z,99141.94
2023-01-29T12:00:55.490Z,99147.44
2023-01-29T12:03:59.970Z,99150.63
2023-01-29T12:07:02.914Z,99144.16
2023-01-29T12:10:06.170Z,99139.94
2023-01-29T12:13:21.586Z,99141.09
2023-01-29T12:16:26.869Z,99147.56
2023-01-29T12:19:36.585Z,99148.78
2023-01-29T12:22:44.162Z,99156.28
2023-01-29T12:25:52.230Z,99157.13
2023-01-29T12:29:00.574Z,99149.38
2023-01-29T12:32:08.001Z,99151.59
2023-01-29T12:35:16.316Z,99152.56
2023-01-29T12:38:19.670Z,99148.09
2023-01-29T12:41:35.553Z,99148.38
2023-01-29T12:44:42.676Z,99159.00
2023-01-29T12:47:48.232Z,99150.41
2023-01-29T12:50:54.116Z,99148.78
2023-01-29T12:53:58.726Z,99148.72
2023-01-29T12:57:04.265Z,99154.41
2023-01-29T13:00:09.299Z,99161.69
2023-01-29T13:03:17.388Z,99157.38
2023-01-29T13:06:23.680Z,99154.00
2023-01-29T13:09:28.987Z,99159.56
2023-01-29T13:12:32.541Z,99163.47
2023-01-29T13:15:36.978Z,99148.97
2023-01-29T13:18:42.896Z,99164.69
2023-01-29T13:21:47.719Z,99163.78
2023-01-29T13:25:03.556Z,99158.72
2023-01-29T13:28:07.311Z,99162.47
2023-01-29T13:31:23.604Z,99159.78
2023-01-29T13:34:28.566Z,99159.94
2023-01-29T13:37:34.988Z,99155.91
2023-01-29T13:40:38.356Z,99159.31
2023-01-29T13:43:42.701Z,99164.94
2023-01-29T13:46:50.066Z,99167.59
2023-01-29T13:49:57.581Z,99157.53
2023-01-29T13:53:03.291Z,99156.78
2023-01-29T13:56:24.614Z,99154.28
2023-01-29T13:59:42.290Z,99165.50
2023-01-29T14:02:45.286Z,99166.84
2023-01-29T14:05:58.608Z,99164.34
2023-01-29T14:09:02.833Z,99163.66
2023-01-29T14:12:08.345Z,99168.00
2023-01-29T14:15:21.510Z,99165.56
2023-01-29T14:18:25.841Z,99161.44
2023-01-29T14:21:30.596Z,99168.72
2023-01-29T14:24:35.064Z,99170.41
2023-01-29T14:27:38.373Z,99174.06
2023-01-29T14:30:42.228Z,99176.34
2023-01-29T14:33:45.170Z,99182.06
2023-01-29T14:36:50.511Z,99180.56
2023-01-29T14:39:57.743Z,99179.41
2023-01-29T14:43:03.044Z,99175.59
2023-01-29T14:46:32.774Z,99182.13
2023-01-29T14:49:54.633Z,99182.59
2023-01-29T14:53:01.346Z,99184.94
2023-01-29T14:56:11.714Z,99184.56
2023-01-29T14:59:17.486Z,99186.41
2023-01-29T15:02:22.010Z,99183.41
2023-01-29T15:05:28.941Z,99195.25
2023-01-29T15:08:37.656Z,99197.47
2023-01-29T15:11:48.772Z,99191.06
2023-01-29T15:14:58.096Z,99195.78
2023-01-29T15:18:04.963Z,99193.28
2023-01-29T15:21:12.892Z,99190.63
2023-01-29T15:24:15.759Z,99195.63
2023-01-29T15:27:21.270Z,99194.50
2023-01-29T15:30:25.735Z,99200.81
2023-01-29T15:33:29.503Z,99199.84
2023-01-29T15:36:32.827Z,99208.13
2023-01-29T15:39:43.741Z,99212.84
2023-01-29T15:42:48.859Z,99212.06
2023-01-29T15:45:52.825Z,99207.84
2023-01-29T15:48:56.406Z,99212.19
2023-01-29T15:52:00.806Z,99218.88
2023-01-29T15:55:06.050Z,99212.84
2023-01-29T15:58:14.815Z,99214.56
2023-01-29T16:01:17.949Z,99204.91
2023-01-29T16:04:24.079Z,99207.41
2023-01-29T16:07:27.191Z,99208.72
2023-01-29T16:10:31.329Z,99205.69
2023-01-29T16:13:37.073Z,99204.00
2023-01-29T16:16:40.101Z,99201.72
2023-01-29T16:19:42.975Z,99200.19
2023-01-29T16:22:47.822Z,99205.00
2023-01-29T16:25:51.073Z,99200.88
2023-01-29T16:28:55.689Z,99211.19
2023-01-29T16:32:01.953Z,99208.72
2023-01-29T16:35:05.156Z,99206.06
2023-01-29T16:38:09.177Z,99202.34
2023-01-29T16:41:16.357Z,99215.00
2023-01-29T16:44:36.663Z,99209.22
2023-01-29T16:47:41.504Z,99213.13
2023-01-29T16:50:54.643Z,99212.16
2023-01-29T16:54:02.453Z,99219.25
2023-01-29T16:57:05.353Z,99221.91
2023-01-29T17:00:27.993Z,99212.28
2023-01-29T17:03:33.517Z,99224.75
2023-01-29T17:06:36.590Z,99215.91
2023-01-29T17:09:39.542Z,99214.69
2023-01-29T17:12:42.549Z,99221.19
2023-01-29T17:15:47.510Z,99219.25
2023-01-29T17:18:50.544Z,99216.75
2023-01-29T17:21:53.549Z,99217.09
2023-01-29T17:24:56.476Z,99223.03
2023-01-29T17:28:01.436Z,99216.03
2023-01-29T17:31:07.222Z,99219.75
2023-01-29T17:34:12.697Z,99221.09
2023-01-29T17:37:16.798Z,99213.53
2023-01-29T17:40:29.735Z,99220.94
2023-01-29T17:43:32.625Z,99224.78
2023-01-29T17:46:36.833Z,99224.53
2023-01-29T17:49:39.717Z,99226.97
2023-01-29T17:52:42.599Z,99225.31
2023-01-29T17:55:45.455Z,99222.13
2023-01-29T17:58:48.287Z,99219.34
2023-01-29T18:01:53.254Z,99223.31
2023-01-29T18:04:56.194Z,99227.66
2023-01-29T18:07:59.000Z,99227.22
2023-01-29T18:11:02.165Z,99225.06
2023-01-29T18:14:14.358Z,99209.97
2023-01-29T18:17:22.396Z,99206.78
2023-01-29T18:20:26.003Z,99213.91
2023-01-29T18:23:29.580Z,99210.75
2023-01-29T18:26:32.494Z,99216.94
2023-01-29T18:29:35.404Z,99216.03
2023-01-29T18:32:39.657Z,99215.69
2023-01-29T18:35:42.621Z,99215.69
2023-01-29T18:38:45.516Z,99217.91
2023-01-29T18:41:48.390Z,99222.41
2023-01-29T18:44:51.305Z,99230.94
2023-01-29T18:47:55.514Z,99227.34
2023-01-29T18:50:58.436Z,99231.06
2023-01-29T18:54:01.257Z,99232.38
2023-01-29T18:57:13.563Z,99238.53
2023-01-29T19:00:17.644Z,99239.09
2023-01-29T19:03:21.983Z,99231.28
2023-01-29T19:06:24.790Z,99225.28
2023-01-29T19:09:27.853Z,99215.53
2023-01-29T19:12:30.713Z,99220.16
2023-01-29T19:15:33.590Z,99225.38
2023-01-29T19:18:37.892Z,99209.84
2023-01-29T19:21:40.673Z,99214.69
2023-01-29T19:24:43.519Z,99209.56
2023-01-29T19:27:46.419Z,99203.06
2023-01-29T19:30:49.353Z,99208.53
2023-01-29T19:33:53.598Z,99210.69
2023-01-29T19:36:56.471Z,99215.19
2023-01-29T19:39:59.229Z,99216.03
2023-01-29T19:43:02.033Z,99220.66
2023-01-29T19:46:04.846Z,99227.78
2023-01-29T19:49:10.710Z,99222.53
2023-01-29T19:52:49.437Z,99213.94
2023-01-29T19:55:59.920Z,99222.47
2023-01-29T19:59:03.017Z,99220.41
2023-01-29T20:02:05.961Z,99224.19
2023-01-29T20:05:12.130Z,99224.81
2023-01-29T20:08:15.034Z,99231.97
2023-01-29T20:11:19.182Z,99225.25
2023-01-29T20:14:22.165Z,99237.22
2023-01-29T20:17:25.018Z,99229.66
2023-01-29T20:20:31.038Z,99233.31
2023-01-29T20:23:38.369Z,99232.78
2023-01-29T20:26:41.637Z,99246.50
2023-01-29T20:29:45.383Z,99249.09
2023-01-29T20:32:48.175Z,99257.19
2023-01-29T20:35:55.531Z,99259.41
2023-01-29T20:38:58.345Z,99264.41
2023-01-29T20:42:01.111Z,99269.97
2023-01-29T20:45:03.978Z,99273.84
2023-01-29T20:48:08.012Z,99271.91
2023-01-29T20:51:15.330Z,99271.13
2023-01-29T20:54:18.265Z,99274.25
2023-01-29T20:57:21.195Z,99270.56
2023-01-29T21:00:24.219Z,99263.25
2023-01-29T21:03:27.309Z,99260.44
2023-01-29T21:06:31.462Z,99256.78
2023-01-29T21:09:34.339Z,99260.44
2023-01-29T21:12:37.279Z,99258.72
2023-01-29T21:15:40.114Z,99258.72
2023-01-29T21:18:42.985Z,99263.25
2023-01-29T21:21:47.152Z,99268.09
2023-01-29T21:24:50.024Z,99263.06
2023-01-29T21:27:52.884Z,99261.50
2023-01-29T21:31:03.421Z,99264.72
2023-01-29T21:34:06.355Z,99257.22
2023-01-29T21:37:10.590Z,99256.56
2023-01-29T21:40:13.478Z,99253.72
2023-01-29T21:43:16.319Z,99244.88
2023-01-29T21:46:19.187Z,99235.50
2023-01-29T21:49:22.022Z,99233.03
2023-01-29T21:52:26.306Z,99226.72
2023-01-29T21:55:29.139Z,99231.75
2023-01-29T21:58:31.994Z,99228.63
2023-01-29T22:01:38.165Z,99226.63
2023-01-29T22:04:41.670Z,99224.13
2023-01-29T22:07:45.921Z,99223.97
2023-01-29T22:10:48.908Z,99220.44
2023-01-29T22:13:51.856Z,99225.78
2023-01-29T22:16:54.731Z,99222.63
2023-01-29T22:19:57.529Z,99235.31
2023-01-29T22:23:01.785Z,99225.28
2023-01-29T22:26:05.127Z,99226.00
2023-01-29T22:29:07.936Z,99228.28
2023-01-29T22:32:11.393Z,99231.50
2023-01-29T22:35:14.245Z,99226.84
2023-01-29T22:38:18.467Z,99220.50
2023-01-29T22:41:21.271Z,99219.81
2023-01-29T22:44:24.114Z,99222.34
2023-01-29T22:47:26.951Z,99216.16
2023-01-29T22:50:29.799Z,99213.31
2023-01-29T22:53:37.013Z,99210.66
2023-01-29T22:56:40.516Z,99211.81
2023-01-29T22:59:43.274Z,99211.31
2023-01-29T23:02:47.679Z,99212.81
2023-01-29T23:05:50.783Z,99212.31
2023-01-29T23:08:55.082Z,99199.66
2023-01-29T23:11:57.908Z,99212.66
2023-01-29T23:15:00.759Z,99213.16
2023-01-29T23:18:04.233Z,99212.31
2023-01-29T23:21:07.024Z,99218.88
2023-01-29T23:24:11.767Z,99210.19
2023-01-29T23:27:17.413Z,99213.66
2023-01-29T23:30:20.460Z,99207.16
2023-01-29T23:33:23.793Z,99203.66
2023-01-29T23:36:26.753Z,99199.94
2023-01-29T23:39:30.916Z,99199.47
2023-01-29T23:42:33.794Z,99201.28
2023-01-29T23:45:36.553Z,99197.94
2023-01-29T23:48:39.397Z,99195.94
2023-01-29T23:51:42.270Z,99201.97
2023-01-29T23:54:46.523Z,99197.13
2023-01-29T23:57:49.365Z,99196.31
